Time,TemperatureF,DewpointF,PressureIn,WindDirection,WindDirectionDegrees,WindSpeedMPH,WindSpeedGustMPH,Humidity,HourlyPrecipIn,Conditions,Clouds,dailyrainin,SoftwareType,DateUTC
2013-04-04 00:00:00,33.5,15.5,30.10,SW,225,1.0,0.0,47,0.00,,,0.00,WeatherTracker,2013-04-04 04:00:00,
2013-04-04 00:05:00,33.4,15.8,30.09,NW,309,1.0,0.0,48,0.00,,,0.00,WeatherTracker,2013-04-04 04:05:00,
2013-04-04 00:10:00,33.3,15.8,30.10,West,268,2.0,0.0,48,0.00,,,0.00,WeatherTracker,2013-04-04 04:10:00,
2013-04-04 00:15:00,33.3,15.8,30.10,West,273,3.0,0.0,48,0.00,,,0.00,WeatherTracker,2013-04-04 04:15:00,
2013-04-04 00:20:00,33.2,15.7,30.10,SSW,195,1.0,0.0,48,0.00,,,0.00,WeatherTracker,2013-04-04 04:20:00,
2013-04-04 00:25:00,33.1,16.0,30.10,WSW,252,2.0,0.0,49,0.00,,,0.00,WeatherTracker,2013-04-04 04:25:00,
2013-04-04 00:30:00,33.0,15.5,30.10,WNW,284,1.0,0.0,48,0.00,,,0.00,WeatherTracker,2013-04-04 04:30:00,
2013-04-04 00:35:00,33.0,15.5,30.11,West,261,1.0,0.0,48,0.00,,,0.00,WeatherTracker,2013-04-04 04:35:00,
2013-04-04 00:41:00,33.0,15.9,30.11,WNW,301,0.0,0.0,49,0.00,,,0.00,WeatherTracker,2013-04-04 04:41:00,
2013-04-04 21:29:00,42.2,24.9,30.04,South,169,3.0,0.0,50,0.00,,,0.05,WeatherTracker,2013-04-05 01:29:00,
2013-04-04 21:34:00,42.1,24.3,30.04,SSE,156,3.0,0.0,49,0.00,,,0.05,WeatherTracker,2013-04-05 01:34:00,
2013-04-04 21:39:00,42.0,24.7,30.04,SSW,194,2.0,0.0,50,0.00,,,0.05,WeatherTracker,2013-04-05 01:39:00,
2013-04-04 21:44:00,42.0,24.2,30.04,South,175,0.0,0.0,49,0.00,,,0.05,WeatherTracker,2013-04-05 01:44:00,
2013-04-04 21:49:00,41.9,23.7,30.04,SSE,163,3.0,0.0,48,0.00,,,0.05,WeatherTracker,2013-04-05 01:49:00,
2013-04-04 21:54:00,41.8,23.6,30.04,SSE,166,0.0,0.0,48,0.00,,,0.05,WeatherTracker,2013-04-05 01:54:00,
2013-04-04 21:59:00,41.7,24.0,30.03,SSE,159,1.0,0.0,49,0.00,,,0.05,WeatherTracker,2013-04-05 01:59:00,
2013-04-04 22:04:00,41.5,23.8,30.03,West,268,0.0,0.0,49,0.00,,,0.05,WeatherTracker,2013-04-05 02:04:00,
2013-04-04 22:09:00,41.4,24.2,30.03,SSE,159,2.0,0.0,50,0.00,,,0.05,WeatherTracker,2013-04-05 02:09:00,
2013-04-04 22:14:00,41.3,24.6,30.02,SSE,167,3.0,0.0,51,0.00,,,0.05,WeatherTracker,2013-04-05 02:14:00,
2013-04-04 22:19:00,41.2,24.5,30.02,SSE,163,1.0,0.0,51,0.00,,,0.05,WeatherTracker,2013-04-05 02:19:00,
2013-04-04 22:24:00,41.0,24.7,30.02,South,174,3.0,0.0,52,0.00,,,0.05,WeatherTracker,2013-04-05 02:24:00,
2013-04-04 22:29:00,40.8,25.0,30.02,SSE,167,0.0,0.0,53,0.00,,,0.05,WeatherTracker,2013-04-05 02:29:00,
2013-04-04 22:34:00,40.7,24.9,30.02,South,177,2.0,0.0,53,0.00,,,0.05,WeatherTracker,2013-04-05 02:34:00,
2013-04-04 22:39:00,40.6,25.3,30.02,SSE,153,4.0,0.0,54,0.01,,,0.06,WeatherTracker,2013-04-05 02:39:00,
2013-04-04 22:44:00,40.5,25.6,30.02,SSE,168,4.0,0.0,55,0.01,,,0.06,WeatherTracker,2013-04-05 02:44:00,
2013-04-04 22:49:00,40.3,25.4,30.02,South,174,3.0,0.0,55,0.01,,,0.06,WeatherTracker,2013-04-05 02:49:00,
2013-04-04 22:54:00,40.2,25.8,30.02,SSE,163,5.0,0.0,56,0.01,,,0.06,WeatherTracker,2013-04-05 02:54:00,
2013-04-04 22:59:00,40.1,25.7,30.01,SSE,150,1.0,0.0,56,0.01,,,0.06,WeatherTracker,2013-04-05 02:59:00,
2013-04-04 23:05:00,40.0,26.0,30.01,SSE,163,3.0,0.0,57,0.01,,,0.06,WeatherTracker,2013-04-05 03:05:00,
2013-04-04 23:10:00,39.9,25.9,30.01,South,169,6.0,0.0,57,0.01,,,0.06,WeatherTracker,2013-04-05 03:10:00,
2013-04-04 23:15:00,39.8,25.8,30.01,South,179,5.0,0.0,57,0.01,,,0.06,WeatherTracker,2013-04-05 03:15:00,
2013-04-04 23:20:00,39.7,26.1,30.01,SSE,157,4.0,0.0,58,0.01,,,0.06,WeatherTracker,2013-04-05 03:20:00,
2013-04-04 23:25:00,39.6,26.5,30.01,South,169,3.0,0.0,59,0.01,,,0.06,WeatherTracker,2013-04-05 03:25:00,
2013-04-04 23:30:00,39.5,26.8,30.00,SSE,167,5.0,0.0,60,0.01,,,0.06,WeatherTracker,2013-04-05 03:30:00,
2013-04-04 23:35:00,39.4,26.7,30.00,South,175,1.0,0.0,60,0.01,,,0.06,WeatherTracker,2013-04-05 03:35:00,
2013-04-04 23:40:00,39.3,27.0,30.00,South,169,2.0,0.0,61,0.00,,,0.06,WeatherTracker,2013-04-05 03:40:00,
2013-04-04 23:45:00,39.1,27.2,30.00,SSE,161,0.0,0.0,62,0.00,,,0.06,WeatherTracker,2013-04-05 03:45:00,
2013-04-04 23:50:00,39.0,27.5,30.00,South,169,1.0,0.0,63,0.00,,,0.06,WeatherTracker,2013-04-05 03:50:00,
2013-04-04 23:55:00,38.8,27.7,30.00,SSE,157,4.0,0.0,64,0.00,,,0.06,WeatherTracker,2013-04-05 03:55:00,